Time;durP1;ratioP1;P1;durP2;ratioP2;P2;SDS_P1;SDS_P2;PMS_P1;PMS_P2;Temp;Humidity;BMP_temperature;BMP_pressure;BME280_temperature;BME280_humidity;BME280_pressure;Samples;Min_cycle;Max_cycle;Signal;HPM_P1;HPM_P2
2022/03/04 00:00:20;;;;;;;0.98;0.98;;;;;;;6.72;43.66;101344.34;5174584;28;20042;-81
2022/03/04 00:02:52;;;;;;;1.85;1.58;;;;;;;6.76;43.74;101338.25;5168622;28;20161;-81
2022/03/04 00:05:22;;;;;;;0.50;0.50;;;;;;;6.72;43.53;101340.00;5158461;28;20132;-81
2022/03/04 00:07:53;;;;;;;1.40;1.30;;;;;;;6.75;43.39;101336.50;5175816;28;20090;-81
2022/03/04 00:10:23;;;;;;;0.98;0.98;;;;;;;6.63;43.67;101346.97;5147562;28;20271;-80
2022/03/04 00:12:54;;;;;;;1.13;1.05;;;;;;;6.52;43.88;101347.81;5168336;28;20097;-81
2022/03/04 00:15:24;;;;;;;1.98;1.70;;;;;;;6.49;43.98;101350.41;5155816;28;20098;-81
2022/03/04 00:17:55;;;;;;;1.05;1.05;;;;;;;5.97;44.49;101353.81;5145557;28;20081;-81
2022/03/04 00:20:28;;;;;;;11.60;1.50;;;;;;;6.11;44.59;101351.28;5151604;28;20042;-81
2022/03/04 00:22:59;;;;;;;;;;;;;;;6.05;45.27;101354.72;5175098;28;20068;-80
2022/03/04 00:25:29;;;;;;;1.42;1.33;;;;;;;6.20;44.56;101350.44;5175575;28;19964;-81
2022/03/04 00:28:00;;;;;;;2.17;1.98;;;;;;;5.70;44.88;101349.41;5180005;28;20038;-82
2022/03/04 00:30:31;;;;;;;1.88;1.77;;;;;;;5.71;45.25;101344.19;5163771;28;20737;-82
2022/03/04 00:33:02;;;;;;;1.90;1.75;;;;;;;5.87;45.35;101347.72;5162605;28;20064;-82
2022/03/04 00:35:32;;;;;;;0.90;0.90;;;;;;;5.75;45.15;101350.28;5165895;28;20605;-82
2022/03/04 00:38:03;;;;;;;0.90;0.90;;;;;;;5.59;45.16;101352.84;5149380;28;20732;-82
2022/03/04 00:40:36;;;;;;;2.85;2.60;;;;;;;5.88;44.84;101353.78;5175890;28;20045;-82
2022/03/04 00:43:07;;;;;;;0.70;0.70;;;;;;;5.78;45.15;101352.91;5156518;28;20038;-81
2022/03/04 00:45:37;;;;;;;1.33;1.27;;;;;;;5.46;45.59;101353.66;5142456;28;20069;-82
2022/03/04 00:48:08;;;;;;;1.65;1.50;;;;;;;5.68;45.10;101352.03;5179478;28;20426;-80
2022/03/04 00:50:38;;;;;;;1.23;1.13;;;;;;;5.76;45.01;101360.72;5176663;28;20049;-80
2022/03/04 00:53:12;;;;;;;1.58;1.48;;;;;;;5.78;45.34;101360.72;5179799;28;20111;-80
2022/03/04 00:55:42;;;;;;;1.55;1.48;;;;;;;5.52;44.86;101366.69;5183114;28;20041;-80
2022/03/04 00:58:13;;;;;;;1.27;1.25;;;;;;;5.56;45.35;101363.25;5181163;28;20038;-81
2022/03/04 01:00:44;;;;;;;1.58;1.10;;;;;;;5.32;45.36;101364.88;5172990;28;20153;-80
2022/03/04 01:03:14;;;;;;;1.90;1.40;;;;;;;5.28;46.20;101365.72;5160729;28;20812;-80
2022/03/04 01:05:45;;;;;;;1.55;1.45;;;;;;;5.25;46.28;101370.91;5158550;28;20543;-80
2022/03/04 01:08:15;;;;;;;1.38;1.27;;;;;;;5.11;45.86;101369.97;5141124;28;20042;-79
2022/03/04 01:10:49;;;;;;;1.00;1.00;;;;;;;5.08;46.69;101369.97;5159612;28;20034;-80
2022/03/04 01:13:21;;;;;;;;;;;;;;;4.82;46.92;101370.66;5150532;28;20030;-80
2022/03/04 01:15:51;;;;;;;1.40;1.40;;;;;;;5.08;46.20;101375.16;5180855;28;19926;-80
2022/03/04 01:18:22;;;;;;;0.98;0.93;;;;;;;4.82;47.06;101383.66;5161536;28;20112;-79
2022/03/04 01:20:52;;;;;;;4.35;3.25;;;;;;;5.12;45.65;101380.41;5156612;28;20506;-80
2022/03/04 01:23:23;;;;;;;0.77;0.77;;;;;;;5.19;45.69;101378.69;5168682;28;20056;-80
2022/03/04 01:25:54;;;;;;;1.30;1.17;;;;;;;5.26;45.88;101384.78;5170481;28;20077;-80
2022/03/04 01:28:27;;;;;;;1.52;1.42;;;;;;;5.17;46.37;101375.19;5171060;28;20581;-80
2022/03/04 01:30:58;;;;;;;5.20;4.68;;;;;;;5.27;46.00;101378.72;5166531;28;20097;-81
2022/03/04 01:33:28;;;;;;;6.13;1.90;;;;;;;5.39;45.93;101368.38;5189000;28;20041;-80
2022/03/04 01:35:59;;;;;;;0.98;0.98;;;;;;;5.39;45.89;101372.72;5151426;28;20052;-80
2022/03/04 01:38:32;;;;;;;1.83;1.73;;;;;;;5.42;45.54;101370.13;5171196;28;20030;-80
2022/03/04 01:41:04;;;;;;;1.65;1.58;;;;;;;5.49;45.42;101361.50;5172131;28;20034;-80
2022/03/04 01:43:35;;;;;;;1.50;1.40;;;;;;;5.52;45.22;101361.50;5190453;28;20034;-81
2022/03/04 01:46:17;;;;;;;1.27;1.27;;;;;;;5.43;46.06;101354.53;5179230;28;20281;-80
2022/03/04 01:48:47;;;;;;;32.95;2.72;;;;;;;5.49;45.71;101361.50;5192832;28;20583;-80
2022/03/04 01:51:18;;;;;;;0.98;0.98;;;;;;;5.47;45.75;101358.88;5190038;28;20041;-81
2022/03/04 01:53:48;;;;;;;1.40;1.30;;;;;;;5.53;45.96;101351.97;5192084;28;20034;-80
2022/03/04 01:56:19;;;;;;;2.10;1.55;;;;;;;5.48;45.73;101359.75;5187464;28;20073;-80
2022/03/04 01:58:49;;;;;;;1.30;1.27;;;;;;;5.51;45.56;101360.63;5182005;28;20223;-81
2022/03/04 02:01:20;;;;;;;1.02;0.95;;;;;;;5.52;46.20;101358.88;5158460;28;20045;-80
2022/03/04 02:03:51;;;;;;;0.80;0.80;;;;;;;5.54;45.87;101358.91;5189448;28;20041;-81
2022/03/04 02:06:22;;;;;;;1.25;1.15;;;;;;;5.56;45.49;101357.16;5144542;28;20042;-81
2022/03/04 02:08:52;;;;;;;1.30;1.25;;;;;;;5.54;45.45;101364.97;5163919;28;20034;-82
2022/03/04 02:11:23;;;;;;;2.20;1.77;;;;;;;5.51;46.04;101364.94;5173927;28;20038;-80
2022/03/04 02:13:54;;;;;;;2.97;2.20;;;;;;;5.57;45.72;101361.50;5165319;28;20177;-81
2022/03/04 02:16:51;;;;;;;0.55;0.55;;;;;;;5.53;46.43;101360.63;5171531;28;20037;-81
2022/03/04 02:19:23;;;;;;;2.17;1.98;;;;;;;5.56;45.30;101362.38;5181481;28;20052;-80
2022/03/04 02:22:00;;;;;;;3.03;2.42;;;;;;;5.56;45.33;101362.38;5146070;28;20040;-81
2022/03/04 02:24:32;;;;;;;1.00;0.95;;;;;;;5.50;45.11;101366.69;5176897;28;20037;-81
2022/03/04 02:27:03;;;;;;;3.45;2.85;;;;;;;5.49;45.94;101364.94;5178308;28;20060;-80
2022/03/04 02:29:34;;;;;;;0.60;0.60;;;;;;;5.49;46.29;101356.28;5154702;28;20173;-81
2022/03/04 02:32:06;;;;;;;0.85;0.85;;;;;;;5.42;45.69;101354.50;5188603;28;20545;-81
2022/03/04 02:34:40;;;;;;;1.02;1.02;;;;;;;5.41;45.90;101353.66;5173955;28;20053;-80
2022/03/04 02:37:10;;;;;;;1.05;1.05;;;;;;;5.32;45.95;101357.09;5147106;28;20095;-80
2022/03/04 02:39:41;;;;;;;1.30;1.23;;;;;;;5.34;45.79;101355.34;5136907;28;20030;-80
2022/03/04 02:42:12;;;;;;;2.90;1.83;;;;;;;5.27;45.94;101353.56;5140902;28;20034;-80
2022/03/04 02:44:42;;;;;;;3.80;2.35;;;;;;;5.30;45.99;101350.09;5177309;28;20310;-80
2022/03/04 02:47:13;;;;;;;1.38;1.35;;;;;;;5.32;45.96;101344.06;5180903;28;20037;-80
2022/03/04 02:49:43;;;;;;;0.60;0.60;;;;;;;5.39;45.64;101354.50;5173978;28;20130;-79
2022/03/04 02:52:14;;;;;;;1.25;1.25;;;;;;;5.34;45.96;101355.34;5171052;28;20638;-80
2022/03/04 02:54:44;;;;;;;1.30;1.25;;;;;;;5.40;45.85;101351.03;5157517;28;20069;-79
2022/03/04 02:57:14;;;;;;;0.98;0.98;;;;;;;5.41;45.41;101352.78;5174701;28;20030;-80
2022/03/04 02:59:45;;;;;;;1.60;1.20;;;;;;;5.36;45.90;101348.41;5135942;28;20038;-80
2022/03/04 03:02:15;;;;;;;0.63;0.63;;;;;;;5.39;45.66;101349.31;5159213;28;20025;-80
2022/03/04 03:04:46;;;;;;;1.55;1.48;;;;;;;5.34;45.57;101346.66;5154752;28;20050;-79
2022/03/04 03:07:16;;;;;;;3.58;3.28;;;;;;;5.42;45.73;101344.97;5179105;28;20341;-79
2022/03/04 03:09:47;;;;;;;2.88;2.60;;;;;;;5.38;46.11;101347.56;5173172;28;20676;-80
2022/03/04 03:12:17;;;;;;;1.52;1.42;;;;;;;5.30;46.31;101348.41;5180687;28;20040;-80
2022/03/04 03:14:48;;;;;;;1.65;1.55;;;;;;;5.32;46.15;101349.28;5168148;28;20038;-80
2022/03/04 03:17:18;;;;;;;0.77;0.77;;;;;;;5.33;46.04;101347.53;5160486;28;20041;-80
2022/03/04 03:19:49;;;;;;;1.25;1.25;;;;;;;5.32;46.07;101345.78;5148298;28;20042;-80
2022/03/04 03:22:20;;;;;;;1.90;1.80;;;;;;;5.24;46.40;101356.19;5175796;28;20044;-79
2022/03/04 03:24:50;;;;;;;2.63;1.83;;;;;;;5.27;45.99;101347.50;5179204;28;20049;-80
2022/03/04 03:27:21;;;;;;;1.25;1.25;;;;;;;5.25;46.67;101347.47;5169551;28;20050;-80
2022/03/04 03:29:51;;;;;;;1.10;1.10;;;;;;;5.18;46.61;101351.81;5156707;28;20065;-80
2022/03/04 03:32:21;;;;;;;6.90;1.88;;;;;;;5.19;46.58;101357.88;5183066;28;20033;-80
2022/03/04 03:34:55;;;;;;;3.83;2.15;;;;;;;5.10;47.01;101353.50;5168222;28;20034;-79
2022/03/04 03:37:28;;;;;;;1.77;1.67;;;;;;;5.14;46.23;101350.03;5176135;28;20030;-79
2022/03/04 03:39:59;;;;;;;2.53;2.33;;;;;;;5.10;46.98;101355.22;5150565;28;20042;-79
2022/03/04 03:42:29;;;;;;;0.75;0.75;;;;;;;5.19;46.90;101363.06;5175897;28;20018;-81
2022/03/04 03:44:59;;;;;;;0.63;0.63;;;;;;;5.00;46.33;101357.75;5191856;28;20073;-81
2022/03/04 03:47:30;;;;;;;2.67;1.63;;;;;;;5.02;46.72;101355.19;5181070;28;20026;-81
2022/03/04 03:50:01;;;;;;;1.93;1.83;;;;;;;5.04;47.08;101356.94;5188047;28;20418;-81
2022/03/04 03:52:31;;;;;;;1.02;1.02;;;;;;;5.09;46.74;101359.56;5155496;28;20038;-81
2022/03/04 03:55:03;;;;;;;3.47;3.03;;;;;;;5.08;46.52;101362.16;5174408;28;20046;-81
2022/03/04 03:57:33;;;;;;;1.85;1.75;;;;;;;5.00;46.74;101362.94;5172013;28;20477;-81
2022/03/04 04:00:05;;;;;;;1.75;1.42;;;;;;;4.82;46.81;101362.84;5155962;28;20034;-81
2022/03/04 04:02:36;;;;;;;1.95;1.85;;;;;;;5.00;46.69;101362.94;5173693;28;20125;-82
2022/03/04 04:05:09;;;;;;;1.13;1.13;;;;;;;4.99;46.71;101366.44;5147195;28;20129;-82
2022/03/04 04:07:40;;;;;;;1.67;1.58;;;;;;;5.03;46.79;101380.34;5173403;28;20435;-81
2022/03/04 04:10:10;;;;;;;3.00;2.25;;;;;;;5.04;46.24;101375.13;5173053;28;20074;-82
2022/03/04 04:12:40;;;;;;;3.67;1.60;;;;;;;4.97;46.83;101375.97;5161171;28;20308;-81
2022/03/04 04:15:14;;;;;;;0.90;0.90;;;;;;;5.02;46.68;101374.25;5159914;28;20408;-81
2022/03/04 04:17:44;;;;;;;0.60;0.60;;;;;;;4.98;46.23;101369.91;5180981;28;20037;-81
2022/03/04 04:20:15;;;;;;;2.30;2.03;;;;;;;4.91;47.14;101368.13;5162407;28;20319;-81
2022/03/04 04:22:45;;;;;;;1.90;1.75;;;;;;;4.90;46.86;101376.78;5163085;28;20032;-81
2022/03/04 04:25:16;;;;;;;1.25;1.25;;;;;;;4.75;47.16;101376.66;5160094;28;20046;-81
2022/03/04 04:27:46;;;;;;;1.27;1.27;;;;;;;4.86;46.67;101377.59;5162375;28;20030;-81
2022/03/04 04:30:17;;;;;;;0.70;0.70;;;;;;;4.88;46.61;101376.75;5160948;28;20070;-80
2022/03/04 04:32:47;;;;;;;0.95;0.95;;;;;;;4.89;46.34;101380.22;5174145;28;20096;-80
2022/03/04 04:35:17;;;;;;;2.22;1.83;;;;;;;4.96;46.23;101382.00;5145321;28;20056;-81
2022/03/04 04:37:48;;;;;;;1.02;1.02;;;;;;;4.96;46.68;101386.34;5176474;28;20117;-80
2022/03/04 04:40:19;;;;;;;1.90;1.77;;;;;;;4.88;46.44;101386.28;5181291;28;20112;-79
2022/03/04 04:42:49;;;;;;;1.30;1.30;;;;;;;4.93;46.64;101389.78;5180735;28;20029;-79
2022/03/04 04:45:20;;;;;;;1.38;1.27;;;;;;;4.96;46.48;101392.41;5175921;28;20097;-80
2022/03/04 04:47:50;;;;;;;2.67;2.38;;;;;;;4.90;47.40;101389.78;5162587;28;20042;-79
2022/03/04 04:50:23;;;;;;;3.47;2.15;;;;;;;4.87;46.69;101394.94;5161086;28;20038;-80
2022/03/04 04:52:54;;;;;;;2.15;2.05;;;;;;;4.85;46.83;101400.16;5172609;28;20029;-79
2022/03/04 04:55:27;;;;;;;3.10;2.53;;;;;;;4.86;46.66;101393.19;5160185;28;20026;-80
2022/03/04 04:57:58;;;;;;;19.92;11.63;;;;;;;4.84;46.48;101393.19;5175443;28;20044;-80
2022/03/04 05:00:28;;;;;;;3.40;2.67;;;;;;;4.80;46.97;101396.63;5140057;28;20387;-80
2022/03/04 05:02:59;;;;;;;2.17;2.08;;;;;;;4.81;46.46;101395.75;5177916;28;20199;-81
2022/03/04 05:05:29;;;;;;;0.68;0.68;;;;;;;4.68;47.36;101392.19;5161368;28;20110;-80
2022/03/04 05:08:00;;;;;;;0.90;0.90;;;;;;;4.71;47.31;101400.03;5183498;28;20091;-81
2022/03/04 05:10:30;;;;;;;2.20;2.00;;;;;;;4.78;47.06;101400.06;5182471;28;20070;-81
2022/03/04 05:13:01;;;;;;;0.68;0.68;;;;;;;4.66;47.14;101393.94;5166356;28;20092;-80
2022/03/04 05:15:31;;;;;;;3.17;2.95;;;;;;;4.64;47.22;101389.56;5150806;28;20441;-80
2022/03/04 05:18:02;;;;;;;2.45;2.35;;;;;;;4.60;48.04;101393.84;5186496;28;20040;-81
2022/03/04 05:20:33;;;;;;;3.03;2.83;;;;;;;4.64;46.70;101390.44;5190019;28;20085;-80
2022/03/04 05:23:03;;;;;;;1.77;1.67;;;;;;;4.60;47.35;101399.06;5181264;28;20117;-80
2022/03/04 05:25:37;;;;;;;5.63;2.35;;;;;;;4.63;47.71;101399.09;5168035;28;20076;-81
2022/03/04 05:28:07;;;;;;;1.00;0.98;;;;;;;4.54;47.60;101404.22;5183833;28;20034;-81
2022/03/04 05:30:38;;;;;;;3.83;2.25;;;;;;;4.56;47.17;101412.91;5183491;28;20050;-80
2022/03/04 05:33:08;;;;;;;1.63;1.52;;;;;;;4.59;47.42;101414.66;5167818;28;20029;-81
2022/03/04 05:35:47;;;;;;;2.25;2.05;;;;;;;4.57;47.39;101412.06;5164089;28;20476;-79
2022/03/04 05:38:18;;;;;;;0.47;0.47;;;;;;;4.53;47.14;101407.66;5185669;28;20089;-80
2022/03/04 05:40:48;;;;;;;2.33;2.20;;;;;;;4.54;46.90;101412.00;5169206;28;20054;-81
2022/03/04 05:43:19;;;;;;;0.55;0.55;;;;;;;4.52;47.31;101413.72;5185214;28;20044;-81
2022/03/04 05:45:49;;;;;;;0.93;0.93;;;;;;;4.49;47.87;101418.91;5178455;28;20038;-81
2022/03/04 05:48:20;;;;;;;1.80;1.73;;;;;;;4.54;46.86;101414.59;5167929;28;20038;-80
2022/03/04 05:50:50;;;;;;;1.02;1.02;;;;;;;4.50;47.67;101416.31;5177067;28;20531;-80
2022/03/04 05:53:21;;;;;;;1.23;1.20;;;;;;;4.37;48.03;101419.66;5163206;28;20061;-80
2022/03/04 05:55:52;;;;;;;1.55;1.45;;;;;;;4.47;47.73;101424.06;5168798;28;20145;-80
2022/03/04 05:58:22;;;;;;;1.50;1.40;;;;;;;4.40;47.74;101425.75;5175949;28;20093;-80
2022/03/04 06:00:53;;;;;;;6.18;1.52;;;;;;;4.53;47.53;101428.47;5176714;28;20034;-80
2022/03/04 06:03:24;;;;;;;5.18;2.20;;;;;;;4.33;47.75;101431.75;5171469;28;20088;-80
2022/03/04 06:05:54;;;;;;;1.83;1.70;;;;;;;4.23;48.33;101437.69;5168068;28;20065;-80
2022/03/04 06:08:25;;;;;;;0.63;0.63;;;;;;;4.41;47.95;101437.00;5174616;28;20168;-80
2022/03/04 06:10:55;;;;;;;1.30;1.25;;;;;;;4.30;47.93;101436.06;5175832;28;20046;-80
2022/03/04 06:13:26;;;;;;;0.90;0.90;;;;;;;4.24;47.83;101429.06;5163566;28;20061;-80
2022/03/04 06:15:56;;;;;;;1.25;1.20;;;;;;;4.37;48.04;101437.84;5155624;28;20046;-80
2022/03/04 06:18:27;;;;;;;1.00;1.00;;;;;;;4.40;48.20;101435.25;5171867;28;20046;-80
2022/03/04 06:20:58;;;;;;;1.42;1.35;;;;;;;4.35;47.48;101440.41;5163776;28;20038;-80
2022/03/04 06:23:28;;;;;;;1.33;1.30;;;;;;;4.40;47.85;101446.53;5187359;28;20542;-81
2022/03/04 06:25:59;;;;;;;1.30;1.20;;;;;;;4.32;48.40;101448.19;5166591;28;20102;-81
2022/03/04 06:28:30;;;;;;;1.00;1.00;;;;;;;4.37;48.26;101443.91;5170140;28;20029;-82
2022/03/04 06:31:01;;;;;;;1.40;1.33;;;;;;;4.42;47.55;101443.94;5151797;28;20112;-82
2022/03/04 06:33:35;;;;;;;1.25;1.25;;;;;;;4.27;48.04;101447.25;5184688;28;20026;-82
2022/03/04 06:36:07;;;;;;;0.85;0.85;;;;;;;4.33;47.48;101447.34;5164126;28;20037;-82
2022/03/04 06:38:41;;;;;;;1.00;1.00;;;;;;;4.34;47.93;101458.59;5197882;28;20053;-82
2022/03/04 06:41:13;;;;;;;1.25;1.25;;;;;;;4.39;47.93;101465.59;5173271;28;20038;-83
2022/03/04 06:43:44;;;;;;;1.23;1.23;;;;;;;4.36;48.20;101465.53;5184905;28;20033;-81
2022/03/04 06:46:16;;;;;;;1.88;1.77;;;;;;;4.43;48.46;101468.19;5175098;28;20042;-80
2022/03/04 06:48:46;;;;;;;1.67;1.58;;;;;;;4.50;47.71;101467.44;5176919;28;20040;-81
2022/03/04 06:51:17;;;;;;;2.00;1.83;;;;;;;4.42;47.80;101472.53;5179007;28;20034;-81
2022/03/04 06:53:47;;;;;;;1.58;1.33;;;;;;;4.40;48.12;101475.13;5181782;28;20030;-82
2022/03/04 06:56:18;;;;;;;1.27;1.25;;;;;;;4.38;48.05;101473.38;5161618;28;20069;-82
2022/03/04 06:58:48;;;;;;;1.05;1.05;;;;;;;4.36;47.94;101473.34;5165251;28;20658;-81
2022/03/04 07:01:19;;;;;;;3.08;2.80;;;;;;;4.32;48.35;101471.56;5159612;28;20319;-81
2022/03/04 07:03:52;;;;;;;1.45;1.42;;;;;;;4.22;48.88;101472.31;5183992;28;20030;-81
2022/03/04 07:06:26;;;;;;;0.98;0.98;;;;;;;4.32;48.27;101470.69;5161086;28;20120;-81
2022/03/04 07:08:56;;;;;;;0.95;0.95;;;;;;;4.24;48.47;101475.81;5162458;28;20117;-81
2022/03/04 07:11:27;;;;;;;2.13;2.00;;;;;;;4.14;49.01;101482.59;5161124;28;20030;-81
2022/03/04 07:13:57;;;;;;;2.15;1.38;;;;;;;4.23;48.45;101487.91;5162392;28;20025;-81
2022/03/04 07:16:28;;;;;;;1.73;1.63;;;;;;;4.14;48.64;101499.94;5149052;28;20041;-81
2022/03/04 07:18:58;;;;;;;1.45;1.40;;;;;;;3.99;50.16;101503.19;5142028;28;20088;-82
2022/03/04 07:21:29;;;;;;;3.70;1.25;;;;;;;3.74;50.03;101501.19;5165097;28;20046;-81
2022/03/04 07:23:59;;;;;;;1.27;1.17;;;;;;;3.73;50.30;101502.03;5169481;28;20026;-81
2022/03/04 07:26:30;;;;;;;2.25;2.05;;;;;;;3.63;50.99;101507.94;5162655;28;20138;-81
2022/03/04 07:29:03;;;;;;;1.70;1.60;;;;;;;3.82;49.36;101503.00;5189292;28;20034;-81
2022/03/04 07:31:38;;;;;;;1.65;1.40;;;;;;;3.98;49.97;101506.66;5134514;28;20365;-81
2022/03/04 07:34:09;;;;;;;2.03;1.92;;;;;;;3.94;49.78;101510.94;5166435;28;20039;-81
2022/03/04 07:36:40;;;;;;;1.85;1.63;;;;;;;3.90;49.62;101514.34;5168458;28;20041;-81
2022/03/04 07:39:13;;;;;;;1.50;1.40;;;;;;;3.87;49.87;101515.19;5136922;28;20037;-83
2022/03/04 07:41:44;;;;;;;1.90;1.75;;;;;;;4.05;49.42;101518.88;5188020;28;20505;-81
2022/03/04 07:44:18;;;;;;;1.20;1.20;;;;;;;3.97;50.23;101516.19;5138521;28;20054;-82
2022/03/04 07:46:50;;;;;;;1.20;1.15;;;;;;;4.22;49.47;101512.16;5160534;28;20089;-79
2022/03/04 07:49:23;;;;;;;1.38;1.38;;;;;;;3.87;49.95;101512.59;5136186;28;20080;-82
2022/03/04 07:51:53;;;;;;;1.80;1.70;;;;;;;3.94;49.89;101517.00;5179995;28;20745;-82
2022/03/04 07:54:24;;;;;;;1.67;0.90;;;;;;;3.74;51.36;101514.16;5166902;28;20036;-81
2022/03/04 07:56:55;;;;;;;43.85;1.73;;;;;;;4.10;49.85;101507.69;5179683;28;20030;-82
2022/03/04 07:59:26;;;;;;;1.55;1.50;;;;;;;4.03;50.36;101511.06;5162241;28;20025;-81
2022/03/04 08:01:56;;;;;;;1.27;1.27;;;;;;;3.99;50.17;101505.81;5164055;28;20022;-82
2022/03/04 08:04:29;;;;;;;2.35;2.15;;;;;;;4.07;50.03;101510.25;5150014;28;20050;-82
2022/03/04 08:06:59;;;;;;;1.10;1.10;;;;;;;4.17;51.07;101516.44;5127579;28;20030;-79
2022/03/04 08:09:30;;;;;;;9.05;8.18;;;;;;;3.97;50.88;101518.78;5158329;28;20034;-83
2022/03/04 08:12:01;;;;;;;1.70;1.40;;;;;;;3.73;52.03;101522.78;5146795;28;20029;-82
2022/03/04 08:14:32;;;;;;;1.98;1.88;;;;;;;3.90;50.96;101511.75;5145884;28;20338;-82
2022/03/04 08:17:03;;;;;;;0.65;0.65;;;;;;;3.85;51.02;101523.78;5142766;28;20023;-82
2022/03/04 08:19:36;;;;;;;2.30;2.10;;;;;;;4.20;50.12;101524.28;5167020;28;20490;-82
2022/03/04 08:22:07;;;;;;;1.73;1.63;;;;;;;4.19;50.83;101529.44;5178127;28;20379;-82
2022/03/04 08:24:37;;;;;;;0.40;0.40;;;;;;;4.21;50.66;101528.63;5164765;28;20045;-82
2022/03/04 08:27:08;;;;;;;0.90;0.90;;;;;;;4.27;50.40;101530.38;5181108;28;20026;-82
2022/03/04 08:29:42;;;;;;;0.88;0.88;;;;;;;4.25;50.21;101530.38;5166925;28;20258;-82
2022/03/04 08:32:13;;;;;;;3.05;1.48;;;;;;;4.12;51.13;101531.09;5180578;28;20038;-82
2022/03/04 08:34:43;;;;;;;0.80;0.80;;;;;;;4.20;51.06;101541.56;5168087;28;20042;-82
2022/03/04 08:37:14;;;;;;;0.82;0.82;;;;;;;4.29;50.86;101540.81;5166367;28;20038;-82
2022/03/04 08:39:47;;;;;;;1.88;1.77;;;;;;;4.37;50.37;101539.19;5182053;28;20039;-82
2022/03/04 08:42:17;;;;;;;1.73;1.63;;;;;;;4.39;50.43;101535.75;5188761;28;20041;-83
2022/03/04 08:44:48;;;;;;;0.93;0.93;;;;;;;4.43;51.12;101535.75;5174184;28;20042;-83
2022/03/04 08:47:19;;;;;;;1.23;1.23;;;;;;;4.49;50.65;101547.09;5172472;28;20686;-82
2022/03/04 08:49:49;;;;;;;0.95;0.93;;;;;;;4.43;51.38;101557.44;5178059;28;20030;-83
2022/03/04 08:52:20;;;;;;;1.55;1.45;;;;;;;4.47;51.75;101547.94;5186772;28;20029;-83
2022/03/04 08:54:50;;;;;;;2.13;1.83;;;;;;;4.63;50.95;101546.41;5189066;28;20401;-81
2022/03/04 08:57:23;;;;;;;1.63;1.52;;;;;;;4.78;50.84;101543.06;5172561;28;20061;-81
2022/03/04 08:59:54;;;;;;;1.40;1.30;;;;;;;4.69;51.56;101533.47;5163268;28;20033;-81
2022/03/04 09:02:25;;;;;;;1.70;1.60;;;;;;;4.75;50.50;101532.66;5155733;28;20034;-81
2022/03/04 09:04:55;;;;;;;5.93;2.15;;;;;;;4.83;50.51;101526.66;5165479;28;20042;-81
2022/03/04 09:07:26;;;;;;;1.02;1.02;;;;;;;4.82;50.61;101531.88;5173851;28;20041;-81
2022/03/04 09:09:56;;;;;;;2.67;1.70;;;;;;;4.87;50.87;101532.75;5177764;28;20046;-82
2022/03/04 09:12:27;;;;;;;2.42;2.15;;;;;;;4.88;50.39;101534.50;5170698;28;20044;-82
2022/03/04 09:14:58;;;;;;;0.77;0.77;;;;;;;4.98;50.42;101533.75;5180486;28;20042;-81
2022/03/04 09:17:28;;;;;;;2.33;2.15;;;;;;;4.98;50.11;101541.56;5182839;28;20050;-81
2022/03/04 09:19:59;;;;;;;0.80;0.80;;;;;;;4.89;50.68;101538.88;5178680;28;20134;-80
2022/03/04 09:22:33;;;;;;;2.28;2.08;;;;;;;4.84;50.73;101537.94;5182837;28;20037;-83
2022/03/04 09:25:04;;;;;;;1.88;1.77;;;;;;;4.95;50.10;101541.50;5182748;28;20034;-81
2022/03/04 09:27:34;;;;;;;0.90;0.88;;;;;;;5.02;50.73;101534.66;5182239;28;20033;-81
2022/03/04 09:30:05;;;;;;;6.30;2.38;;;;;;;5.03;50.42;101533.78;5168626;28;20109;-81
2022/03/04 09:32:36;;;;;;;1.90;1.80;;;;;;;5.12;49.72;101539.09;5162188;28;20038;-81
2022/03/04 09:35:07;;;;;;;1.02;1.02;;;;;;;5.19;50.14;101539.97;5179213;28;20073;-82
2022/03/04 09:37:38;;;;;;;0.93;0.93;;;;;;;5.16;49.95;101542.56;5138976;28;20031;-82
2022/03/04 09:40:09;;;;;;;1.58;1.48;;;;;;;5.25;49.54;101544.38;5170871;28;20121;-81
2022/03/04 09:42:40;;;;;;;1.83;1.73;;;;;;;5.28;50.33;101547.88;5170351;28;20156;-82
2022/03/04 09:45:11;;;;;;;1.70;1.60;;;;;;;5.25;50.67;101547.84;5148253;28;20038;-81
2022/03/04 09:47:45;;;;;;;0.95;0.95;;;;;;;5.48;50.15;101555.84;5161792;28;20048;-81
2022/03/04 09:50:16;;;;;;;1.00;1.00;;;;;;;5.44;50.41;101547.97;5176995;28;20060;-81
2022/03/04 09:52:48;;;;;;;3.10;2.30;;;;;;;5.51;50.40;101550.66;5182885;28;20040;-80
2022/03/04 09:55:18;;;;;;;1.25;1.25;;;;;;;5.55;50.26;101543.75;5178127;28;20128;-82
2022/03/04 09:57:49;;;;;;;3.03;2.83;;;;;;;5.54;50.30;101542.00;5176763;28;20182;-82
2022/03/04 10:00:19;;;;;;;1.92;1.77;;;;;;;5.62;50.01;101540.31;5136250;28;20053;-82
2022/03/04 10:02:50;;;;;;;1.77;1.67;;;;;;;5.68;50.34;101535.13;5147606;28;20434;-82
2022/03/04 10:05:20;;;;;;;1.63;1.52;;;;;;;5.74;50.08;101534.31;5174098;28;20107;-82
2022/03/04 10:07:51;;;;;;;1.80;1.70;;;;;;;5.78;50.07;101543.00;5180273;28;20057;-82
2022/03/04 10:10:22;;;;;;;1.52;1.42;;;;;;;5.73;51.03;101536.91;5147095;28;20077;-83
2022/03/04 10:12:58;;;;;;;2.22;2.13;;;;;;;5.93;50.42;101530.06;5144071;28;20357;-82
2022/03/04 10:15:29;;;;;;;0.75;0.75;;;;;;;5.96;50.71;101535.31;5145150;28;20065;-82
2022/03/04 10:18:04;;;;;;;1.13;1.13;;;;;;;6.03;50.51;101530.16;5173677;28;20569;-82
2022/03/04 10:20:43;;;;;;;1.85;1.75;;;;;;;5.95;50.46;101527.50;5148470;28;20042;-82
2022/03/04 10:23:17;;;;;;;1.25;1.25;;;;;;;5.96;50.54;101514.47;5175885;28;20029;-82
2022/03/04 10:25:53;;;;;;;1.88;1.60;;;;;;;6.13;50.09;101524.97;5189017;28;20042;-82
2022/03/04 10:28:26;;;;;;;2.00;1.45;;;;;;;6.19;50.23;101526.75;5130626;28;20026;-81
2022/03/04 10:30:59;;;;;;;4.18;2.15;;;;;;;6.24;50.13;101522.41;5175805;28;20734;-81
2022/03/04 10:33:32;;;;;;;;;;;;;;;6.27;49.60;101530.25;5158266;28;20045;-81
2022/03/04 10:36:14;;;;;;;0.85;0.85;;;;;;;6.22;49.96;101523.28;5176561;28;19917;-81
2022/03/04 10:39:11;;;;;;;4.72;2.78;;;;;;;6.29;49.74;101523.31;5165693;28;20034;-81
2022/03/04 10:41:49;;;;;;;1.77;1.67;;;;;;;6.36;49.51;101525.94;5160096;28;20041;-81
2022/03/04 10:44:27;;;;;;;3.58;2.55;;;;;;;6.36;49.60;101523.34;5192143;28;20145;-81
2022/03/04 10:46:58;;;;;;;1.85;1.75;;;;;;;6.39;49.43;101523.34;5161622;28;20506;-81
2022/03/04 10:49:30;;;;;;;1.98;1.83;;;;;;;6.46;49.85;101525.09;5157077;28;20038;-82
2022/03/04 10:52:08;;;;;;;1.52;1.45;;;;;;;6.58;49.58;101519.06;5157151;28;20030;-81
2022/03/04 10:54:49;;;;;;;2.10;2.00;;;;;;;6.60;49.81;101515.59;5170987;28;20041;-81
2022/03/04 10:57:21;;;;;;;1.77;1.67;;;;;;;6.71;49.40;101512.97;5156625;28;20030;-80
2022/03/04 10:59:57;;;;;;;1.80;1.70;;;;;;;6.83;49.30;101521.72;5156989;28;20054;-80
2022/03/04 11:02:43;;;;;;;3.45;3.20;;;;;;;6.80;49.56;101512.16;5165753;28;20513;-81
2022/03/04 11:05:13;;;;;;;2.08;1.92;;;;;;;6.89;49.44;101512.16;5165775;28;20099;-81
2022/03/04 11:07:44;;;;;;;4.20;3.45;;;;;;;6.90;49.07;101513.88;5179142;28;20104;-81
2022/03/04 11:10:16;;;;;;;7.13;3.60;;;;;;;7.00;48.96;101516.50;5174483;28;20046;-82
2022/03/04 11:12:50;;;;;;;4.18;3.25;;;;;;;6.98;49.22;101513.88;5164998;28;20097;-82
2022/03/04 11:15:22;;;;;;;3.00;2.80;;;;;;;7.01;49.51;101515.63;5161279;28;20121;-81
2022/03/04 11:17:53;;;;;;;6.83;2.67;;;;;;;7.10;48.97;101518.25;5178298;28;20148;-84
2022/03/04 11:20:23;;;;;;;0.90;0.90;;;;;;;7.19;47.90;101513.03;5181735;28;20516;-81
2022/03/04 11:22:57;;;;;;;16.40;14.80;;;;;;;7.30;48.27;101513.00;5178229;28;20030;-80
2022/03/04 11:25:38;;;;;;;7.18;6.57;;;;;;;7.31;47.74;101508.69;5150787;28;20097;-80
2022/03/04 11:28:17;;;;;;;7.72;1.98;;;;;;;7.43;47.85;101513.03;5174144;28;20042;-80
2022/03/04 11:30:49;;;;;;;2.70;2.47;;;;;;;7.42;47.79;101509.53;5173543;28;20531;-81
2022/03/04 11:33:22;;;;;;;2.63;2.38;;;;;;;7.49;47.63;101511.25;5165275;28;20109;-81
2022/03/04 11:36:10;;;;;;;1.17;1.17;;;;;;;7.53;47.06;101502.56;5148347;28;20042;-81
2022/03/04 11:38:44;;;;;;;1.50;1.45;;;;;;;7.63;46.91;101510.38;5177765;28;20094;-82
2022/03/04 11:41:26;;;;;;;3.13;2.88;;;;;;;7.61;47.07;101505.13;5169466;28;20118;-81
2022/03/04 11:43:58;;;;;;;1.10;1.05;;;;;;;7.68;46.73;101506.88;5181419;28;20038;-82
2022/03/04 11:46:41;;;;;;;1.15;1.15;;;;;;;7.72;45.65;101503.38;5153969;28;20442;-82
2022/03/04 11:49:38;;;;;;;1.63;1.53;;;;;;;7.91;46.08;101503.31;5178959;28;20073;-82
2022/03/04 11:52:12;;;;;;;2.03;1.92;;;;;;;7.97;46.64;101491.97;5162353;28;20072;-82
2022/03/04 11:54:45;;;;;;;2.40;2.22;;;;;;;8.03;46.25;101491.94;5172396;28;20030;-82